• Join FlightAware (Why Join?)
  • Login
  • US Flag GB Flag 
02:19 EDT


 

Airport Tracker/Info


-or-


 

Live Flight TrackerFlight Track Log ✈ CPT7773 ✈ 22-Jan-2014 ✈ KCOD - KCPR

Flight Track Log - Related Links

Times and Time Zones

All times are in EST time to prevent confusion due to time zone crossing. See the CPT7773 flight status page for this flight to view local times or setup timezone preferences in your user account.

Time Position Orientation Groundspeed Altitude Reporting Facility
EST Latitude Longitude Course Direction KTS MPH feet Rate Location/Type
20:17 44.5411 -109.0069 125° Southeast 101 116 6,100  Level Salt Lake Center
20:18 44.5683 -108.9886 26° Northeast 93 107 7,100 840 Climbing Salt Lake Center
20:19 44.3999 -108.7443 121° Southeast  Level FlightAware Approximate
20:19 44.5583 -108.9350 105° East 123 142 7,900  Level Salt Lake Center
20:20 44.3691 -108.6954 133° Southeast  Level Estimated
20:20 44.5464 -108.8861 109° East 130 150 8,700  Level Salt Lake Center
20:21 44.3422 -108.6422 125° Southeast  Level FlightAware Approximate
20:21 44.5353 -108.8344 107° East 135 155 9,500  Level Salt Lake Center
20:22 44.3153 -108.5890 125° Southeast  Level FlightAware Approximate
20:22 44.5106 -108.7925 130° Southeast 138 159 10,400  Level Salt Lake Center
20:23 44.4836 -108.7539 134° Southeast 139 160 11,100 300 Climbing Salt Lake Center
20:24 44.4542 -108.7103 133° Southeast 144 166 11,100 -60 Level Salt Lake Center
20:25 44.4228 -108.6583 130° Southeast 157 181 11,000 -60 Descending Salt Lake Center
20:26 44.3858 -108.6003 132° Southeast 164 189 11,000  Level Salt Lake Center
20:27 44.3533 -108.5511 133° Southeast 169 194 11,000  Level Salt Lake Center
20:28 44.3228 -108.5017 131° Southeast 170 196 11,000  Level Salt Lake Center
20:29 44.2908 -108.4539 133° Southeast 169 194 11,100  Climbing Salt Lake Center
20:30 44.2592 -108.4061 133° Southeast 169 194 11,000  Descending Salt Lake Center
20:31 44.2272 -108.3550 131° Southeast 171 197 11,100  Climbing Salt Lake Center
20:32 44.1950 -108.3050 132° Southeast 173 199 11,100 -60 Level Salt Lake Center
20:33 44.1567 -108.2461 132° Southeast 173 199 11,000  Descending Salt Lake Center
20:34 44.1239 -108.1969 133° Southeast 173 199 11,100  Climbing Salt Lake Center
20:35 44.0919 -108.1481 132° Southeast 173 199 11,100  Level Salt Lake Center
20:36 44.0597 -108.0997 133° Southeast 172 198 11,100  Level Salt Lake Center
20:37 44.0278 -108.0494 131° Southeast 172 198 11,100  Level Salt Lake Center
20:38 43.9956 -108.0019 133° Southeast 172 198 11,100  Level Salt Lake Center
20:39 43.9636 -107.9539 133° Southeast 171 197 11,100  Level Salt Lake Center
20:40 43.9336 -107.9006 128° Southeast 172 198 11,100  Level Salt Lake Center
20:41 43.9014 -107.8358 125° Southeast 171 197 11,100  Level Salt Lake Center
20:42 43.8733 -107.7817 126° Southeast 172 198 11,100  Level Salt Lake Center
20:43 43.8458 -107.7275 125° Southeast 172 198 11,100  Level Salt Lake Center
20:44 43.8197 -107.6756 125° Southeast 170 196 11,100  Level Salt Lake Center
20:45 43.7917 -107.6236 127° Southeast 169 194 11,100  Level Salt Lake Center
20:46 43.7642 -107.5706 126° Southeast 169 194 11,100  Level Salt Lake Center
20:47 43.7378 -107.5181 125° Southeast 168 193 11,100  Level Salt Lake Center
20:49 43.7058 -107.4533 124° Southeast 169 194 11,100  Level Salt Lake Center
20:50 43.6781 -107.4003 126° Southeast 170 196 11,100  Level Salt Lake Center
20:51 43.6506 -107.3467 125° Southeast 171 197 11,100  Level Salt Lake Center
20:52 43.6228 -107.2917 125° Southeast 172 198 11,100  Level Salt Lake Center
20:53 43.5939 -107.2381 127° Southeast 174 200 11,100  Level Salt Lake Center
20:54 43.5658 -107.1847 126° Southeast 173 199 11,100  Level Salt Lake Center
20:55 43.5383 -107.1331 126° Southeast 171 197 11,100  Level Salt Lake Center
20:56 43.5114 -107.0819 126° Southeast 169 194 11,100  Level Salt Lake Center
20:57 43.4797 -107.0200 125° Southeast 166 191 11,100  Level Salt Lake Center
20:58 43.4539 -106.9686 125° Southeast 164 189 11,100 -60 Level Salt Lake Center
20:59 43.4261 -106.9178 127° Southeast 167 192 11,000 -60 Descending Salt Lake Center
21:00 43.3997 -106.8683 126° Southeast 167 192 11,000  Level Salt Lake Center
21:01 43.3686 -106.8108 127° Southeast 167 192 11,000 -180 Level Salt Lake Center
21:02 43.3206 -106.8017 172° South 176 203 10,700 -420 Descending Salt Lake Center
21:03 43.2678 -106.7892 170° South 175 201 10,200 -420 Descending Salt Lake Center
21:04 43.2211 -106.7806 172° South 176 203 9,900 -300 Descending Salt Lake Center
21:06 43.1153 -106.7586 171° South 163 188 9,300 -300 Descending Denver Center
21:07 43.0672 -106.7489 172° South 160 184 8,900 -420 Descending Denver Center
21:08 43.0233 -106.7442 176° South 161 185 8,500 -180 Descending Denver Center
21:09 42.9733 -106.7378 175° South 162 186 8,600  Climbing Denver Center
21:10 42.9292 -106.7331 176° South 163 188 8,600  Level Denver Center
21:11 42.8842 -106.7275 175° South 163 188 8,600  Level Denver Center